Durango Ski Resort, Colorado Weather observations

Data are for observation ending at time listed.
 Day   Time    Ave.   Ave.  Ave.  Vector   Max.    Total    Solar   Ave.  
  of    of     Air    Rel.  Wind   Wind    Wind   Precip.   Rad.    Soil  
Year   Day     Temp.  Hum.  Speed  Dir.    Gust                     Temp. 
2014   (PST)    F      %     mph   deg.    mph      in.     W/m2     F   
------------------------------------------------------------------------------
 240    7:50   42.1    72   14.4   335     31.2    99999.00   99999    99999.0
 240    8:00   42.4    73    7.8   349     13.3    99999.00   99999    99999.0
 240    8:10   42.3    74   12.4   339     20.6    99999.00   99999    99999.0
 240    8:20   41.7    75   11.4   337     16.8    99999.00   99999    99999.0
 240    8:30   41.6    75   12.3   325     20.2    99999.00   99999    99999.0
 240    8:40   41.8    75   10.6   324     19.7    99999.00   99999    99999.0
 240    8:50   42.4    74    6.3   322      9.5    99999.00   99999    99999.0
 240    9:00   42.3    74   11.5   330     24.0    99999.00   99999    99999.0
 240    9:10   42.3    74   15.6   327     24.4    99999.00   99999    99999.0
 240    9:20   42.3    75   18.6   334     33.8    99999.00   99999    99999.0
 240    9:30   43.3    72   19.6   335     33.4    99999.00   99999    99999.0
 240    9:40   43.6    72   16.3   343     28.7    99999.00   99999    99999.0
 240    9:50   44.9    70   12.9   352     21.4    99999.00   99999    99999.0
 240   10:00   44.2    71   15.8   345     25.3    99999.00   99999    99999.0
 240   10:10   43.4    74   16.0   344     26.6    99999.00   99999    99999.0
 240   10:20   43.2    75   18.0   342     30.4    99999.00   99999    99999.0
 240   10:30   43.6    73   16.5   349     27.8    99999.00   99999    99999.0
 240   10:40   44.3    70   16.3   336     28.7    99999.00   99999    99999.0
 240   10:50   43.9    72   13.3   341     21.4    99999.00   99999    99999.0
 240   11:00   44.4    71   10.6   351     18.5    99999.00   99999    99999.0
 240   11:10   44.3    72   11.2   344     24.9    99999.00   99999    99999.0
 240   11:20   44.5    70    7.2   338     19.3    99999.00   99999    99999.0
 240   11:30   45.1    69    4.9   327     12.5    99999.00   99999    99999.0
 240   11:40   46.3    68    2.1    32      7.8    99999.00   99999    99999.0
 240   11:50   46.0    67    3.4    16      8.2    99999.00   99999    99999.0
 240   12:00   46.1    69    3.3    16      9.1    99999.00   99999    99999.0
 240   12:10   45.9    66    2.4     8      6.9    99999.00   99999    99999.0
 240   12:20   46.9    65    0.3     0      3.5    99999.00   99999    99999.0
 240   12:30   46.7    66    3.7    65      9.9    99999.00   99999    99999.0
 240   12:40   47.4    64    2.5    46      6.9    99999.00   99999    99999.0
 240   12:50   48.1    64    0.5    17      5.7    99999.00   99999    99999.0
 240   13:00   48.7    64    2.8    19      7.4    99999.00   99999    99999.0
 240   13:10   48.6    62    3.4    30      6.9    99999.00   99999    99999.0
 240   13:20   48.3    62    1.8    37      7.4    99999.00   99999    99999.0
 240   13:30   48.7    63    3.6    38     11.2    99999.00   99999    99999.0
 240   13:40   48.2    64    4.7    70      8.2    99999.00   99999    99999.0
 240   13:50   48.9    64    2.5    48      6.5    99999.00   99999    99999.0
 240   14:00   49.9    62    4.3    11      9.1    99999.00   99999    99999.0
 240   14:10   49.3    59    6.5     6     10.3    99999.00   99999    99999.0
 240   14:20   49.4    58    5.5     4     11.6    99999.00   99999    99999.0
 240   14:30   49.4    59    4.4    21      9.1    99999.00   99999    99999.0
 240   14:40   50.2    60    2.8    12     11.6    99999.00   99999    99999.0
 240   14:50   50.6    58    0.8   346      5.7    99999.00   99999    99999.0
 240   15:00   50.6    57    4.5     8     10.3    99999.00   99999    99999.0
 240   15:10   49.7    58    6.3    10     10.8    99999.00   99999    99999.0
 240   15:20   49.6    58    4.6     4      9.5    99999.00   99999    99999.0
 240   15:30   49.1    59    6.6     1     10.3    99999.00   99999    99999.0
 240   15:40   49.1    60    5.4     9      8.2    99999.00   99999    99999.0
 240   15:50   49.2    60    5.0     4     11.2    99999.00   99999    99999.0
 240   16:00   48.9    58    7.9     0     12.5    99999.00   99999    99999.0
 240   16:10   49.0    58    7.0   357     12.9    99999.00   99999    99999.0
 240   16:20   49.4    57    7.7     6     14.6    99999.00   99999    99999.0
 240   16:30   48.9    57    7.8   358     13.3    99999.00   99999    99999.0
 240   16:40   48.9    55    9.0   359     12.9    99999.00   99999    99999.0
 240   16:50   49.4    54    8.3   344     11.6    99999.00   99999    99999.0
 240   17:00   50.8    52    6.3   347     13.3    99999.00   99999    99999.0
 240   17:10   50.8    52    7.7     0     13.8    99999.00   99999    99999.0
 240   17:20   50.9    51    5.7   355      9.1    99999.00   99999    99999.0
 240   17:30   50.6    53    6.1   355     11.2    99999.00   99999    99999.0
 240   17:40   50.6    53    5.4    15     11.6    99999.00   99999    99999.0
 240   17:50   51.0    52    2.9    16      8.6    99999.00   99999    99999.0
 240   18:00   50.2    53    5.2    15     10.3    99999.00   99999    99999.0
 240   18:10   49.4    56    3.1    27     11.2    99999.00   99999    99999.0
 240   18:20   49.0    58    2.8    28      7.4    99999.00   99999    99999.0
 240   18:30   48.3    59    3.8    46     10.8    99999.00   99999    99999.0
 240   18:40   47.5    60    1.5    42      7.8    99999.00   99999    99999.0
 240   18:50   46.5    61    3.5    31      6.5    99999.00   99999    99999.0
 240   19:00   45.7    62    2.8    28      6.1    99999.00   99999    99999.0
 240   19:10   45.4    62    0.7    38      4.4    99999.00   99999    99999.0
 240   19:20   45.5    60    1.7    25      6.9    99999.00   99999    99999.0
 240   19:30   45.2    61    0.5    12      5.7    99999.00   99999    99999.0
 240   19:40   44.7    62    1.5    10      6.1    99999.00   99999    99999.0
 240   19:50   45.0    61    1.2    10      5.2    99999.00   99999    99999.0
 240   20:00   44.9    61    0.0     0      0.0    99999.00   99999    99999.0
 240   20:10   44.6    62    0.6    10      3.9    99999.00   99999    99999.0
 240   20:20   44.8    60    0.0     0      0.0    99999.00   99999    99999.0
 240   20:30   45.2    59    3.3    10      6.5    99999.00   99999    99999.0
 240   20:40   45.5    58    5.4    16      7.4    99999.00   99999    99999.0
 240   20:50   45.8    57    5.6    10      8.2    99999.00   99999    99999.0
 240   21:00   45.6    58    6.2   360      7.8    99999.00   99999    99999.0
 240   21:10   45.4    58    6.0     2      8.2    99999.00   99999    99999.0
 240   21:20   45.2    58    7.0     1      9.9    99999.00   99999    99999.0
 240   21:30   45.2    58    6.4   359      9.5    99999.00   99999    99999.0
 240   21:40   45.1    59    5.2   358      6.9    99999.00   99999    99999.0
 240   21:50   44.3    61    0.7   360      6.1    99999.00   99999    99999.0
 240   22:00   44.0    61    0.0     0      0.0    99999.00   99999    99999.0
 240   22:10   44.0    61    0.0     0      0.0    99999.00   99999    99999.0
 240   22:20   43.7    63    0.0     0      0.0    99999.00   99999    99999.0
 240   22:30   43.1    65    0.8     7      9.1    99999.00   99999    99999.0
 240   22:40   43.0    64    1.8     8      8.2    99999.00   99999    99999.0
 240   22:50   43.2    63    4.2    12     12.5    99999.00   99999    99999.0
 240   23:00   43.8    60    7.6    14     14.6    99999.00   99999    99999.0
 240   23:10   43.7    60    7.9     9     12.1    99999.00   99999    99999.0
 240   23:20   43.8    59    9.3     5     13.8    99999.00   99999    99999.0
 240   23:30   44.0    58    9.1     5     14.2    99999.00   99999    99999.0
 240   23:40   43.0    61    2.0     3      7.4    99999.00   99999    99999.0
 240   23:50   43.1    60    6.1     3     11.2    99999.00   99999    99999.0
 241    0:00   43.4    58    7.8     5     11.6    99999.00   99999    99999.0
 241    0:10   43.2    58    2.0    11      6.9    99999.00   99999    99999.0
 241    0:20   43.4    56    1.0    41      5.7    99999.00   99999    99999.0
 241    0:30   43.9    54    3.3    26      7.8    99999.00   99999    99999.0
 241    0:40   44.0    54    4.1    28      8.6    99999.00   99999    99999.0
 241    0:50   43.7    56    3.4    28     11.2    99999.00   99999    99999.0
 241    1:00   43.5    56    5.3    29      8.2    99999.00   99999    99999.0
 241    1:10   43.2    58    5.3    37      9.5    99999.00   99999    99999.0
 241    1:20   43.2    57    5.5    30     12.5    99999.00   99999    99999.0
 241    1:30   43.3    56    6.6    34     12.1    99999.00   99999    99999.0
 241    1:40   43.8    53    5.1    28     12.5    99999.00   99999    99999.0
 241    1:50   43.8    53    5.1    44      8.6    99999.00   99999    99999.0
 241    2:00   44.1    52    5.7    49      8.2    99999.00   99999    99999.0
 241    2:10   43.9    52    5.3    42      8.6    99999.00   99999    99999.0
 241    2:20   44.1    51    4.5    46      7.8    99999.00   99999    99999.0
 241    2:30   44.1    50    5.6    47      8.6    99999.00   99999    99999.0
 241    2:40   44.2    50    5.2    50     10.8    99999.00   99999    99999.0
 241    2:50   44.1    49    2.8    50      6.9    99999.00   99999    99999.0
 241    3:00   44.2    48    3.9    31      6.1    99999.00   99999    99999.0
 241    3:10   44.3    48    4.4    32      9.5    99999.00   99999    99999.0
 241    3:20   44.2    48    4.4    43      6.1    99999.00   99999    99999.0
 241    3:30   44.0    49    4.5    37      6.9    99999.00   99999    99999.0
 241    3:40   44.0    49    4.3    41      7.4    99999.00   99999    99999.0
 241    3:50   43.8    50    4.6    44      7.4    99999.00   99999    99999.0
 241    4:00   43.7    50    4.3    30      6.5    99999.00   99999    99999.0
 241    4:10   43.5    52    4.4    36      7.8    99999.00   99999    99999.0
 241    4:20   43.3    52    4.0    40      6.5    99999.00   99999    99999.0
 241    4:30   43.3    53    1.8    41      6.5    99999.00   99999    99999.0
 241    4:40   43.4    54    3.7    47      6.5    99999.00   99999    99999.0
 241    4:50   43.0    55    4.8    43      7.4    99999.00   99999    99999.0
 241    5:00   43.0    56    5.0    42      7.8    99999.00   99999    99999.0
 241    5:10   42.7    58    4.7    50      7.4    99999.00   99999    99999.0
 241    5:20   42.5    58    3.7    34      6.1    99999.00   99999    99999.0
 241    5:30   42.8    58    4.0    37      7.4    99999.00   99999    99999.0
 241    5:40   42.7    59    3.9    47      9.9    99999.00   99999    99999.0
 241    5:50   42.6    59    3.7    38      6.9    99999.00   99999    99999.0
 241    6:00   43.2    58    4.4    36      8.2    99999.00   99999    99999.0
 241    6:10   44.6    54    4.4    33      9.9    99999.00   99999    99999.0
 241    6:20   45.4    53    2.9    33      7.8    99999.00   99999    99999.0
 241    6:30   45.8    51    3.9    30     10.3    99999.00   99999    99999.0
 241    6:40   46.3    49    3.6    33     11.6    99999.00   99999    99999.0
 241    6:50   46.7    50    2.3    37      7.8    99999.00   99999    99999.0
 241    7:00   47.1    50    3.3    33      7.8    99999.00   99999    99999.0
 241    7:10   47.2    50    5.8    64     10.8    99999.00   99999    99999.0
 241    7:20   46.9    51    5.4    57      9.9    99999.00   99999    99999.0
 241    7:30   47.6    50    5.0    48      9.9    99999.00   99999    99999.0
 241    7:40   47.8    50    5.0    37     10.8    99999.00   99999    99999.0

Return to Durango Ski Resort, Colorado graphs page.


Western Regional Climate Center,wrcc@dri.edu